createdAt,value
2019-02-14T00:00:22.825Z,41.08
2019-02-14T00:01:22.780Z,40.99
2019-02-14T00:02:22.726Z,40.96
2019-02-14T00:03:22.674Z,41.08
2019-02-14T00:04:22.627Z,41.17
2019-02-14T00:05:22.577Z,41.08
2019-02-14T00:06:22.525Z,41.16
2019-02-14T00:07:22.475Z,41.06
2019-02-14T00:08:22.425Z,41.35
2019-02-14T00:09:22.375Z,41.85
2019-02-14T00:10:22.326Z,41.16
2019-02-14T00:11:22.275Z,41.25
2019-02-14T00:12:22.227Z,41.17
2019-02-14T00:13:22.176Z,41.27
2019-02-14T00:14:22.126Z,41.06
2019-02-14T00:15:22.075Z,41.27
2019-02-14T00:16:22.026Z,41.08
2019-02-14T00:17:21.976Z,41.35
2019-02-14T00:18:21.976Z,41.25
2019-02-14T00:19:21.876Z,41.54
2019-02-14T00:20:21.825Z,41.54
2019-02-14T00:21:21.778Z,41.85
2019-02-14T00:22:21.728Z,41.37
2019-02-14T00:23:21.677Z,41.27
2019-02-14T00:24:21.626Z,41.56
2019-02-14T00:25:21.576Z,41.66
2019-02-14T00:26:21.527Z,41.85
2019-02-14T00:27:21.793Z,41.63
2019-02-14T00:28:21.426Z,41.63
2019-02-14T00:29:21.376Z,41.73
2019-02-14T00:30:21.326Z,41.63
2019-02-14T00:31:21.276Z,41.73
2019-02-14T00:32:21.228Z,41.73
2019-02-14T00:33:21.180Z,41.63
2019-02-14T00:34:21.127Z,41.63
2019-02-14T00:35:25.122Z,41.63
2019-02-14T00:36:21.026Z,41.63
2019-02-14T00:37:20.978Z,41.73
2019-02-14T00:38:20.927Z,41.73
2019-02-14T00:39:20.876Z,41.75
2019-02-14T00:40:20.826Z,41.54
2019-02-14T00:41:20.777Z,41.44
2019-02-14T00:42:20.727Z,41.44
2019-02-14T00:43:20.676Z,41.56
2019-02-14T00:44:20.627Z,41.63
2019-02-14T00:45:20.577Z,41.63
2019-02-14T00:46:20.528Z,41.75
2019-02-14T00:47:20.477Z,41.63
2019-02-14T00:48:20.427Z,41.73
2019-02-14T00:49:20.379Z,41.56
2019-02-14T00:50:20.329Z,41.75
2019-02-14T00:51:20.277Z,41.75
2019-02-14T00:52:20.228Z,41.73
2019-02-14T00:53:20.184Z,41.54
2019-02-14T00:54:20.128Z,41.44
2019-02-14T00:55:20.077Z,41.54
2019-02-14T00:56:20.078Z,41.54
2019-02-14T00:57:19.978Z,41.63
2019-02-14T00:58:19.928Z,41.63
2019-02-14T00:59:19.877Z,41.54
2019-02-14T01:00:19.827Z,41.63
2019-02-14T01:01:19.778Z,41.63
2019-02-14T01:02:19.734Z,41.66
2019-02-14T01:03:19.678Z,41.56
2019-02-14T01:04:19.628Z,41.73
2019-02-14T01:05:19.578Z,41.83
2019-02-14T01:06:19.531Z,41.63
2019-02-14T01:07:19.477Z,41.85
2019-02-14T01:08:19.428Z,41.44
2019-02-14T01:09:19.379Z,41.54
2019-02-14T01:10:19.330Z,41.73
2019-02-14T01:11:19.282Z,41.63
2019-02-14T01:12:19.231Z,41.63
2019-02-14T01:13:19.179Z,41.83
2019-02-14T01:14:19.128Z,41.83
2019-02-14T01:15:19.079Z,41.63
2019-02-14T01:16:19.028Z,41.63
2019-02-14T01:17:18.980Z,41.83
2019-02-14T01:18:18.929Z,41.83
2019-02-14T01:19:18.879Z,41.63
2019-02-14T01:20:18.829Z,41.63
2019-02-14T01:21:18.782Z,41.85
2019-02-14T01:22:18.732Z,41.54
2019-02-14T01:23:18.680Z,41.75
2019-02-14T01:24:18.628Z,41.85
2019-02-14T01:25:18.580Z,41.63
2019-02-14T01:26:18.530Z,41.63
2019-02-14T01:27:18.480Z,41.63
2019-02-14T01:28:18.436Z,41.54
2019-02-14T01:29:18.379Z,41.66
2019-02-14T01:30:18.331Z,41.66
2019-02-14T01:31:18.279Z,41.83
2019-02-14T01:32:18.229Z,41.54
2019-02-14T01:33:18.179Z,41.66
2019-02-14T01:34:18.131Z,41.83
2019-02-14T01:35:18.080Z,41.56
2019-02-14T01:36:18.031Z,41.73
2019-02-14T01:37:17.981Z,41.93
2019-02-14T01:38:18.298Z,41.83
2019-02-14T01:39:17.883Z,41.83
2019-02-14T01:40:17.831Z,41.73
2019-02-14T01:41:17.783Z,41.93
2019-02-14T01:42:17.731Z,41.63
2019-02-14T01:43:17.681Z,41.83
2019-02-14T01:44:17.631Z,41.83
2019-02-14T01:45:17.583Z,41.94
2019-02-14T01:46:17.532Z,41.75
2019-02-14T01:47:17.481Z,41.83
2019-02-14T01:48:17.431Z,41.73
2019-02-14T01:49:17.382Z,41.94
2019-02-14T01:50:17.332Z,41.94
2019-02-14T01:51:17.281Z,41.85
2019-02-14T01:52:17.234Z,41.93
2019-02-14T01:53:17.181Z,41.63
2019-02-14T01:54:17.132Z,41.93
2019-02-14T01:55:17.083Z,41.73
2019-02-14T01:56:17.032Z,41.83
2019-02-14T01:57:16.983Z,41.75
2019-02-14T01:58:16.931Z,41.73
2019-02-14T01:59:16.881Z,41.73
2019-02-14T02:00:16.833Z,41.83
2019-02-14T02:01:16.781Z,41.93
2019-02-14T02:02:16.733Z,41.83
2019-02-14T02:03:16.682Z,41.63
2019-02-14T02:04:16.632Z,42.02
2019-02-14T02:05:16.582Z,41.93
2019-02-14T02:06:16.538Z,41.83
2019-02-14T02:07:16.483Z,42.02
2019-02-14T02:08:16.433Z,41.93
2019-02-14T02:09:16.383Z,41.93
2019-02-14T02:10:16.335Z,41.83
2019-02-14T02:11:16.284Z,42.02
2019-02-14T02:12:16.233Z,41.83
2019-02-14T02:13:16.183Z,41.83
2019-02-14T02:14:16.134Z,41.93
2019-02-14T02:15:16.085Z,42.02
2019-02-14T02:16:16.033Z,41.93
2019-02-14T02:17:15.984Z,41.83
2019-02-14T02:18:15.934Z,41.93
2019-02-14T02:19:15.883Z,41.93
2019-02-14T02:20:15.832Z,41.94
2019-02-14T02:21:15.782Z,41.93
2019-02-14T02:22:15.737Z,41.93
2019-02-14T02:23:15.684Z,42.02
2019-02-14T02:24:15.633Z,41.83
2019-02-14T02:25:15.586Z,41.85
2019-02-14T02:26:15.534Z,41.83
2019-02-14T02:27:15.484Z,41.94
2019-02-14T02:28:15.434Z,41.83
2019-02-14T02:29:15.385Z,41.85
2019-02-14T02:30:15.341Z,42.02
2019-02-14T02:31:15.289Z,41.83
2019-02-14T02:32:15.234Z,41.83
2019-02-14T02:33:15.184Z,42.02
2019-02-14T02:34:15.135Z,41.93
2019-02-14T02:35:15.084Z,41.83
2019-02-14T02:36:15.039Z,41.83
2019-02-14T02:37:14.983Z,42.02
2019-02-14T02:38:15.042Z,41.75
2019-02-14T02:39:14.884Z,41.93
2019-02-14T02:40:14.835Z,41.85
2019-02-14T02:41:14.784Z,41.83
2019-02-14T02:42:14.735Z,42.02
2019-02-14T02:43:14.684Z,41.94
2019-02-14T02:44:14.635Z,41.94
2019-02-14T02:45:14.585Z,41.93
2019-02-14T02:46:14.546Z,41.93
2019-02-14T02:47:14.484Z,41.93
2019-02-14T02:48:14.434Z,41.93
2019-02-14T02:49:14.389Z,42.04
2019-02-14T02:50:14.335Z,41.93
2019-02-14T02:51:14.286Z,42.02
2019-02-14T02:52:14.236Z,42.02
2019-02-14T02:53:14.184Z,42.02
2019-02-14T02:54:14.136Z,42.02
2019-02-14T02:55:14.146Z,42.02
2019-02-14T02:56:14.036Z,41.83
2019-02-14T02:57:14.040Z,41.93
2019-02-14T02:58:14.035Z,42.02
2019-02-14T02:59:14.323Z,41.93
2019-02-14T03:00:13.835Z,42.02
2019-02-14T03:01:13.787Z,41.83
2019-02-14T03:02:13.736Z,41.93
2019-02-14T03:03:13.685Z,41.93
2019-02-14T03:04:13.636Z,41.93
2019-02-14T03:05:13.586Z,41.83
2019-02-14T03:06:13.536Z,41.93
2019-02-14T03:07:13.486Z,41.93
2019-02-14T03:08:13.439Z,41.93
2019-02-14T03:09:13.386Z,41.83
2019-02-14T03:10:13.335Z,42.02
2019-02-14T03:11:13.286Z,41.93
2019-02-14T03:12:13.236Z,42.02
2019-02-14T03:13:13.187Z,41.93
2019-02-14T03:14:13.145Z,42.02
2019-02-14T03:15:13.141Z,41.93
2019-02-14T03:16:13.087Z,41.93
2019-02-14T03:17:13.145Z,41.93
2019-02-14T03:18:12.938Z,41.93
2019-02-14T03:19:12.888Z,41.73
2019-02-14T03:20:12.836Z,41.63
2019-02-14T03:21:12.790Z,41.73
2019-02-14T03:22:12.736Z,41.73
2019-02-14T03:23:12.686Z,41.73
2019-02-14T03:24:12.638Z,41.93
2019-02-14T03:25:12.589Z,41.85
2019-02-14T03:26:12.537Z,41.73
2019-02-14T03:27:12.486Z,41.94
2019-02-14T03:28:12.437Z,41.63
2019-02-14T03:29:12.387Z,42.02
2019-02-14T03:30:12.349Z,41.83
2019-02-14T03:31:12.287Z,41.83
2019-02-14T03:32:12.240Z,41.63
2019-02-14T03:33:12.203Z,41.93
2019-02-14T03:34:12.138Z,41.73
2019-02-14T03:35:12.086Z,41.83
2019-02-14T03:36:18.794Z,41.83
2019-02-14T03:37:11.988Z,41.73
2019-02-14T03:38:11.937Z,41.83
2019-02-14T03:39:11.938Z,41.75
2019-02-14T03:40:11.839Z,41.93
2019-02-14T03:41:11.788Z,41.73
2019-02-14T03:42:11.738Z,41.83
2019-02-14T03:43:11.686Z,41.93
2019-02-14T03:44:11.640Z,41.93
2019-02-14T03:45:11.588Z,41.83
2019-02-14T03:46:11.542Z,41.83
2019-02-14T03:47:11.488Z,41.93
2019-02-14T03:48:11.438Z,41.63
2019-02-14T03:49:11.388Z,41.63
2019-02-14T03:50:11.345Z,41.73
2019-02-14T03:51:11.288Z,41.63
2019-02-14T03:52:11.246Z,41.73
2019-02-14T03:53:11.189Z,41.85
2019-02-14T03:54:11.139Z,41.73
2019-02-14T03:55:11.088Z,41.83
2019-02-14T03:56:11.039Z,41.73
2019-02-14T03:57:10.988Z,41.83
2019-02-14T03:58:10.991Z,41.93
2019-02-14T03:59:10.895Z,41.83
2019-02-14T04:00:10.839Z,41.93
2019-02-14T04:01:10.789Z,42.02
2019-02-14T04:02:10.753Z,42.02
2019-02-14T04:03:10.689Z,41.66
2019-02-14T04:04:10.639Z,41.73
2019-02-14T04:05:10.590Z,41.83
2019-02-14T04:06:10.540Z,41.93
2019-02-14T04:07:10.489Z,42.02
2019-02-14T04:08:10.439Z,41.93
2019-02-14T04:09:10.397Z,41.83
2019-02-14T04:10:10.343Z,41.73
2019-02-14T04:11:10.289Z,41.63
2019-02-14T04:12:10.241Z,41.73
2019-02-14T04:13:10.190Z,41.83
2019-02-14T04:14:10.140Z,41.73
2019-02-14T04:15:10.089Z,41.73
2019-02-14T04:16:10.039Z,41.83
2019-02-14T04:17:09.989Z,41.83
2019-02-14T04:18:09.990Z,41.93
2019-02-14T04:19:09.889Z,42.02
2019-02-14T04:20:09.842Z,41.93
2019-02-14T04:21:09.790Z,41.83
2019-02-14T04:22:09.740Z,41.73
2019-02-14T04:23:09.690Z,41.93
2019-02-14T04:24:09.641Z,42.21
2019-02-14T04:25:09.593Z,42.11
2019-02-14T04:26:09.540Z,42.02
2019-02-14T04:27:09.489Z,42.11
2019-02-14T04:28:09.440Z,41.83
2019-02-14T04:29:09.391Z,41.73
2019-02-14T04:30:09.341Z,41.83
2019-02-14T04:31:09.290Z,42.21
2019-02-14T04:32:09.240Z,42.21
2019-02-14T04:33:09.192Z,42.02
2019-02-14T04:34:09.142Z,42.02
2019-02-14T04:35:09.089Z,42.21
2019-02-14T04:36:09.039Z,42.02
2019-02-14T04:37:09.041Z,42.30
2019-02-14T04:38:08.941Z,42.02
2019-02-14T04:39:08.892Z,42.11
2019-02-14T04:40:08.841Z,42.21
2019-02-14T04:41:08.794Z,42.21
2019-02-14T04:42:08.741Z,41.83
2019-02-14T04:43:08.691Z,42.11
2019-02-14T04:44:08.642Z,41.83
2019-02-14T04:45:08.600Z,42.02
2019-02-14T04:46:08.541Z,42.02
2019-02-14T04:47:08.490Z,42.11
2019-02-14T04:48:08.441Z,41.73
2019-02-14T04:49:08.391Z,42.11
2019-02-14T04:50:08.341Z,42.11
2019-02-14T04:51:08.290Z,42.11
2019-02-14T04:52:08.252Z,42.21
2019-02-14T04:53:08.191Z,42.02
2019-02-14T04:54:08.141Z,42.21
2019-02-14T04:55:08.090Z,42.30
2019-02-14T04:56:08.042Z,42.02
2019-02-14T04:57:07.991Z,41.83
2019-02-14T04:58:07.942Z,42.30
2019-02-14T04:59:07.941Z,42.21
2019-02-14T05:00:07.841Z,42.30
2019-02-14T05:01:07.791Z,42.11
2019-02-14T05:02:07.742Z,42.11
2019-02-14T05:03:07.695Z,42.11
2019-02-14T05:04:07.641Z,42.11
2019-02-14T05:05:07.590Z,42.02
2019-02-14T05:06:07.540Z,42.40
2019-02-14T05:07:07.490Z,42.02
2019-02-14T05:08:07.441Z,42.30
2019-02-14T05:09:07.392Z,42.21
2019-02-14T05:10:07.342Z,42.11
2019-02-14T05:11:07.291Z,42.21
2019-02-14T05:12:07.241Z,42.30
2019-02-14T05:13:07.192Z,42.30
2019-02-14T05:14:07.142Z,42.11
2019-02-14T05:15:07.092Z,41.93
2019-02-14T05:16:07.040Z,42.02
2019-02-14T05:17:06.992Z,42.30
2019-02-14T05:18:06.942Z,42.40
2019-02-14T05:19:06.942Z,42.11
2019-02-14T05:20:06.841Z,42.02
2019-02-14T05:21:06.792Z,42.21
2019-02-14T05:22:06.745Z,42.30
2019-02-14T05:23:06.693Z,41.83
2019-02-14T05:24:06.642Z,42.02
2019-02-14T05:25:06.592Z,42.11
2019-02-14T05:26:06.541Z,42.11
2019-02-14T05:27:06.497Z,42.30
2019-02-14T05:28:06.442Z,42.30
2019-02-14T05:29:06.392Z,42.02
2019-02-14T05:30:06.377Z,42.02
2019-02-14T05:31:06.294Z,42.11
2019-02-14T05:32:06.245Z,42.11
2019-02-14T05:33:06.192Z,42.11
2019-02-14T05:34:06.143Z,42.23
2019-02-14T05:35:06.092Z,42.30
2019-02-14T05:36:06.041Z,42.30
2019-02-14T05:37:05.992Z,42.11
2019-02-14T05:38:05.993Z,42.11
2019-02-14T05:39:05.892Z,42.30
2019-02-14T05:40:05.897Z,42.02
2019-02-14T05:41:05.792Z,42.11
2019-02-14T05:42:05.743Z,42.02
2019-02-14T05:43:05.692Z,42.02
2019-02-14T05:44:05.643Z,42.02
2019-02-14T05:45:05.599Z,41.83
2019-02-14T05:46:05.543Z,42.02
2019-02-14T05:47:05.494Z,42.21
2019-02-14T05:48:05.443Z,42.21
2019-02-14T05:49:05.395Z,42.11
2019-02-14T05:50:05.343Z,42.21
2019-02-14T05:51:05.293Z,42.11
2019-02-14T05:52:05.243Z,42.21
2019-02-14T05:53:05.193Z,42.11
2019-02-14T05:54:05.144Z,42.11
2019-02-14T05:55:05.093Z,42.02
2019-02-14T05:56:05.043Z,42.21
2019-02-14T05:57:04.993Z,41.83
2019-02-14T05:58:04.943Z,41.83
2019-02-14T05:59:04.895Z,41.83
2019-02-14T06:00:04.843Z,42.02
2019-02-14T06:01:04.801Z,42.30
2019-02-14T06:02:04.743Z,42.02
2019-02-14T06:03:04.694Z,42.30
2019-02-14T06:04:04.643Z,42.30
2019-02-14T06:05:04.593Z,42.30
2019-02-14T06:06:04.544Z,42.40
2019-02-14T06:07:04.503Z,42.30
2019-02-14T06:08:04.446Z,42.30
2019-02-14T06:09:04.394Z,42.02
2019-02-14T06:10:04.345Z,42.40
2019-02-14T06:11:04.297Z,42.30
2019-02-14T06:12:04.243Z,42.30
2019-02-14T06:13:04.193Z,42.30
2019-02-14T06:14:04.144Z,42.21
2019-02-14T06:15:04.093Z,42.40
2019-02-14T06:16:04.044Z,42.21
2019-02-14T06:17:04.001Z,42.02
2019-02-14T06:18:03.945Z,42.02
2019-02-14T06:19:03.894Z,42.40
2019-02-14T06:20:03.843Z,42.33
2019-02-14T06:21:03.795Z,42.30
2019-02-14T06:22:03.745Z,42.21
2019-02-14T06:23:03.694Z,42.21
2019-02-14T06:24:03.644Z,42.30
2019-02-14T06:25:03.596Z,42.02
2019-02-14T06:26:03.548Z,41.93
2019-02-14T06:27:03.499Z,42.02
2019-02-14T06:28:03.444Z,42.02
2019-02-14T06:29:03.395Z,42.02
2019-02-14T06:30:03.348Z,41.93
2019-02-14T06:31:03.297Z,41.93
2019-02-14T06:32:03.245Z,41.83
2019-02-14T06:33:03.195Z,42.02
2019-02-14T06:34:03.145Z,42.11
2019-02-14T06:35:03.095Z,42.33
2019-02-14T06:36:03.045Z,42.21
2019-02-14T06:37:09.516Z,42.33
2019-02-14T06:38:03.045Z,42.21
2019-02-14T06:39:02.896Z,42.21
2019-02-14T06:40:02.846Z,42.33
2019-02-14T06:41:03.661Z,42.21
2019-02-14T06:42:02.746Z,42.11
2019-02-14T06:43:02.696Z,42.11
2019-02-14T06:44:02.645Z,42.02
2019-02-14T06:45:02.595Z,42.11
2019-02-14T06:46:02.546Z,42.21
2019-02-14T06:47:02.496Z,42.11
2019-02-14T06:48:02.445Z,42.11
2019-02-14T06:49:02.399Z,42.21
2019-02-14T06:50:02.357Z,42.23
2019-02-14T06:51:02.298Z,42.11
2019-02-14T06:52:02.246Z,42.11
2019-02-14T06:53:02.197Z,42.11
2019-02-14T06:54:02.147Z,42.13
2019-02-14T06:55:02.098Z,42.11
2019-02-14T06:56:02.047Z,42.21
2019-02-14T06:57:02.000Z,42.11
2019-02-14T06:58:01.973Z,42.21
2019-02-14T06:59:01.902Z,42.21
2019-02-14T07:00:01.847Z,42.02
2019-02-14T07:01:01.796Z,42.30
2019-02-14T07:02:01.749Z,42.21
2019-02-14T07:03:01.697Z,42.11
2019-02-14T07:04:01.648Z,42.30
2019-02-14T07:05:01.596Z,42.23
2019-02-14T07:06:01.548Z,42.11
2019-02-14T07:07:01.497Z,42.11
2019-02-14T07:08:01.448Z,42.21
2019-02-14T07:09:01.402Z,42.21
2019-02-14T07:10:01.350Z,42.21
2019-02-14T07:11:01.300Z,42.21
2019-02-14T07:12:01.248Z,42.30
2019-02-14T07:13:01.198Z,42.23
2019-02-14T07:14:01.147Z,42.11
2019-02-14T07:15:01.097Z,42.13
2019-02-14T07:16:01.049Z,42.21
2019-02-14T07:17:00.999Z,42.21
2019-02-14T07:18:00.956Z,42.21
2019-02-14T07:19:00.899Z,42.11
2019-02-14T07:20:00.848Z,42.11
2019-02-14T07:21:00.798Z,42.11
2019-02-14T07:22:00.750Z,42.30
2019-02-14T07:23:00.703Z,42.04
2019-02-14T07:24:00.655Z,42.11
2019-02-14T07:25:00.599Z,42.43
2019-02-14T07:26:00.554Z,42.61
2019-02-14T07:27:00.502Z,42.81
2019-02-14T07:28:00.450Z,43.07
2019-02-14T07:29:00.400Z,43.29
2019-02-14T07:30:00.350Z,43.38
2019-02-14T07:31:00.300Z,43.10
2019-02-14T07:32:00.250Z,43.19
2019-02-14T07:33:00.207Z,43.19
2019-02-14T07:34:00.150Z,43.38
2019-02-14T07:35:00.270Z,43.77
2019-02-14T07:36:00.050Z,43.67
2019-02-14T07:37:00.002Z,43.96
2019-02-14T07:37:59.951Z,43.96
2019-02-14T07:38:59.900Z,43.96
2019-02-14T07:39:59.851Z,44.15
2019-02-14T07:40:59.801Z,43.67
2019-02-14T07:41:59.752Z,44.24
2019-02-14T07:42:59.703Z,44.24
2019-02-14T07:43:59.652Z,44.15
2019-02-14T07:44:59.602Z,43.87
2019-02-14T07:45:59.551Z,43.96
2019-02-14T07:46:59.502Z,44.44
2019-02-14T07:47:59.451Z,44.34
2019-02-14T07:48:59.405Z,44.06
2019-02-14T07:49:59.356Z,44.15
2019-02-14T07:50:59.303Z,44.24
2019-02-14T07:51:59.254Z,43.96
2019-02-14T07:52:59.204Z,43.77
2019-02-14T07:53:59.154Z,44.34
2019-02-14T07:54:59.128Z,44.44
2019-02-14T07:55:59.056Z,44.06
2019-02-14T07:56:59.006Z,44.06
2019-02-14T07:57:58.954Z,43.96
2019-02-14T07:58:58.904Z,44.15
2019-02-14T07:59:58.855Z,43.96
2019-02-14T08:00:58.806Z,43.96
2019-02-14T08:01:58.754Z,43.67
2019-02-14T08:02:58.705Z,43.67
2019-02-14T08:03:58.655Z,43.67
2019-02-14T08:04:58.605Z,43.77
2019-02-14T08:05:58.555Z,43.96
2019-02-14T08:06:58.506Z,43.96
2019-02-14T08:07:58.458Z,43.77
2019-02-14T08:08:58.407Z,44.24
2019-02-14T08:09:58.356Z,44.15
2019-02-14T08:10:58.307Z,43.77
2019-02-14T08:11:58.256Z,44.15
2019-02-14T08:12:58.208Z,44.34
2019-02-14T08:13:58.158Z,44.73
2019-02-14T08:14:58.108Z,44.73
2019-02-14T08:15:58.057Z,44.06
2019-02-14T08:16:58.008Z,44.34
2019-02-14T08:17:58.009Z,43.96
2019-02-14T08:18:59.994Z,44.24
2019-02-14T08:19:57.859Z,44.54
2019-02-14T08:20:57.809Z,44.63
2019-02-14T08:21:57.760Z,44.63
2019-02-14T08:22:57.708Z,44.82
2019-02-14T08:23:57.660Z,44.44
2019-02-14T08:24:57.611Z,44.44
2019-02-14T08:25:57.561Z,44.73
2019-02-14T08:26:57.510Z,44.92
2019-02-14T08:27:57.461Z,44.92
2019-02-14T08:28:57.411Z,45.01
2019-02-14T08:29:57.362Z,45.01
2019-02-14T08:30:57.313Z,45.01
2019-02-14T08:31:57.262Z,44.92
2019-02-14T08:32:57.214Z,45.01
2019-02-14T08:33:57.162Z,45.11
2019-02-14T08:34:57.113Z,45.11
2019-02-14T08:35:57.064Z,45.11
2019-02-14T08:36:57.015Z,45.01
2019-02-14T08:37:56.965Z,44.82
2019-02-14T08:38:56.914Z,44.92
2019-02-14T08:39:56.864Z,45.01
2019-02-14T08:40:56.818Z,44.82
2019-02-14T08:41:56.772Z,44.92
2019-02-14T08:42:58.578Z,44.82
2019-02-14T08:43:56.666Z,44.92
2019-02-14T08:44:56.617Z,44.63
2019-02-14T08:45:56.567Z,44.54
2019-02-14T08:46:56.517Z,44.82
2019-02-14T08:47:56.467Z,44.63
2019-02-14T08:48:56.418Z,44.54
2019-02-14T08:49:56.368Z,44.54
2019-02-14T08:50:56.365Z,44.54
2019-02-14T08:51:56.268Z,44.34
2019-02-14T08:52:56.219Z,44.34
2019-02-14T08:53:56.169Z,43.96
2019-02-14T08:54:56.119Z,43.96
2019-02-14T08:55:56.071Z,44.15
2019-02-14T08:56:56.020Z,44.24
2019-02-14T08:57:55.975Z,44.15
2019-02-14T08:58:55.971Z,43.96
2019-02-14T08:59:55.872Z,44.15
2019-02-14T09:00:55.823Z,44.15
2019-02-14T09:01:57.522Z,44.15
2019-02-14T09:02:55.724Z,43.87
2019-02-14T09:03:55.674Z,44.06
2019-02-14T09:04:55.629Z,43.87
2019-02-14T09:05:55.582Z,43.87
2019-02-14T09:06:55.524Z,43.87
2019-02-14T09:07:55.482Z,44.06
2019-02-14T09:08:55.427Z,44.24
2019-02-14T09:09:55.376Z,43.77
2019-02-14T09:10:55.326Z,44.06
2019-02-14T09:11:55.277Z,44.15
2019-02-14T09:12:55.228Z,44.15
2019-02-14T09:13:55.179Z,44.24
2019-02-14T09:14:55.128Z,44.24
2019-02-14T09:15:55.080Z,44.34
2019-02-14T09:16:55.030Z,44.44
2019-02-14T09:17:54.989Z,44.44
2019-02-14T09:18:54.931Z,44.34
2019-02-14T09:19:54.935Z,44.34
2019-02-14T09:20:54.832Z,44.34
2019-02-14T09:21:54.783Z,44.24
2019-02-14T09:22:54.733Z,44.65
2019-02-14T09:23:54.684Z,44.65
2019-02-14T09:24:54.633Z,44.84
2019-02-14T09:25:54.586Z,44.46
2019-02-14T09:26:54.537Z,44.56
2019-02-14T09:27:54.487Z,44.94
2019-02-14T09:28:54.437Z,44.94
2019-02-14T09:29:54.387Z,45.14
2019-02-14T09:30:54.340Z,44.84
2019-02-14T09:31:54.289Z,45.04
2019-02-14T09:32:54.242Z,45.14
2019-02-14T09:33:54.272Z,45.14
2019-02-14T09:34:54.140Z,45.23
2019-02-14T09:35:54.092Z,45.23
2019-02-14T09:36:54.042Z,45.14
2019-02-14T09:38:02.762Z,45.23
2019-02-14T09:38:53.994Z,44.94
2019-02-14T09:39:53.894Z,44.94
2019-02-14T09:40:53.852Z,45.32
2019-02-14T09:41:53.796Z,45.23
2019-02-14T09:42:53.746Z,45.23
2019-02-14T09:43:53.696Z,45.23
2019-02-14T09:44:53.648Z,45.14
2019-02-14T09:45:53.600Z,45.23
2019-02-14T09:46:53.619Z,45.42
2019-02-14T09:47:54.011Z,45.52
2019-02-14T09:48:53.451Z,45.52
2019-02-14T09:49:53.402Z,45.52
2019-02-14T09:50:53.365Z,45.52
2019-02-14T09:51:53.312Z,45.61
2019-02-14T09:52:53.253Z,45.52
2019-02-14T09:53:53.208Z,45.52
2019-02-14T09:54:53.158Z,45.71
2019-02-14T09:55:53.109Z,45.61
2019-02-14T09:56:53.076Z,45.61
2019-02-14T09:57:53.009Z,45.61
2019-02-14T09:58:52.958Z,45.52
2019-02-14T09:59:52.911Z,45.61
2019-02-14T10:00:52.926Z,45.54
2019-02-14T10:01:52.811Z,45.64
2019-02-14T10:02:52.770Z,45.92
2019-02-14T10:03:52.713Z,45.64
2019-02-14T10:04:52.665Z,45.81
2019-02-14T10:05:52.617Z,45.54
2019-02-14T10:06:52.566Z,45.54
2019-02-14T10:07:52.516Z,45.73
2019-02-14T10:08:52.475Z,45.83
2019-02-14T10:09:52.419Z,46.02
2019-02-14T10:10:52.374Z,46.02
2019-02-14T10:11:52.321Z,46.02
2019-02-14T10:12:52.308Z,46.12
2019-02-14T10:13:52.225Z,46.12
2019-02-14T10:14:52.172Z,46.21
2019-02-14T10:15:52.124Z,45.83
2019-02-14T10:16:52.074Z,45.83
2019-02-14T10:17:52.029Z,45.73
2019-02-14T10:18:51.977Z,45.73
2019-02-14T10:19:51.984Z,45.81
2019-02-14T10:20:51.889Z,45.92
2019-02-14T10:21:51.834Z,45.83
2019-02-14T10:22:51.781Z,45.83
2019-02-14T10:23:51.734Z,45.64
2019-02-14T10:24:52.664Z,45.64
2019-02-14T10:25:51.634Z,45.61
2019-02-14T10:26:51.584Z,45.73
2019-02-14T10:27:51.536Z,45.54
2019-02-14T10:28:51.486Z,45.15
2019-02-14T10:29:51.444Z,45.32
2019-02-14T10:30:51.387Z,45.14
2019-02-14T10:31:51.340Z,45.45
2019-02-14T10:32:51.291Z,44.96
2019-02-14T10:33:51.245Z,45.14
2019-02-14T10:34:51.191Z,45.25
2019-02-14T10:35:51.143Z,45.14
2019-02-14T10:36:51.096Z,45.14
2019-02-14T10:37:51.049Z,45.04
2019-02-14T10:38:51.047Z,44.94
2019-02-14T10:39:50.997Z,44.94
2019-02-14T10:40:50.898Z,45.04
2019-02-14T10:41:50.850Z,44.94
2019-02-14T10:42:50.802Z,44.75
2019-02-14T10:43:50.750Z,44.56
2019-02-14T10:44:50.701Z,44.46
2019-02-14T10:45:50.652Z,44.84
2019-02-14T10:46:50.604Z,44.56
2019-02-14T10:47:50.557Z,44.56
2019-02-14T10:48:50.506Z,44.75
2019-02-14T10:49:50.458Z,44.65
2019-02-14T10:50:50.407Z,44.56
2019-02-14T10:51:50.358Z,44.65
2019-02-14T10:52:50.310Z,44.27
2019-02-14T10:53:50.262Z,44.27
2019-02-14T10:54:50.212Z,44.46
2019-02-14T10:55:50.162Z,44.37
2019-02-14T10:56:50.113Z,43.79
2019-02-14T10:57:50.065Z,43.98
2019-02-14T10:58:50.016Z,43.88
2019-02-14T10:59:49.967Z,44.17
2019-02-14T11:00:49.975Z,44.08
2019-02-14T11:01:49.870Z,44.37
2019-02-14T11:02:49.819Z,44.08
2019-02-14T11:03:49.771Z,44.08
2019-02-14T11:04:49.722Z,44.27
2019-02-14T11:05:49.672Z,44.08
2019-02-14T11:06:49.678Z,43.98
2019-02-14T11:07:49.574Z,44.08
2019-02-14T11:08:49.525Z,44.08
2019-02-14T11:09:49.477Z,44.65
2019-02-14T11:10:49.426Z,44.17
2019-02-14T11:11:49.378Z,44.08
2019-02-14T11:12:49.328Z,43.88
2019-02-14T11:13:49.279Z,44.75
2019-02-14T11:14:49.231Z,43.79
2019-02-14T11:15:49.181Z,44.75
2019-02-14T11:16:49.133Z,43.70
2019-02-14T11:17:49.320Z,43.70
2019-02-14T11:18:49.034Z,44.94
2019-02-14T11:19:49.040Z,44.94
2019-02-14T11:20:48.987Z,44.94
2019-02-14T11:21:48.888Z,43.60
2019-02-14T11:22:49.399Z,43.70
2019-02-14T11:23:48.788Z,44.75
2019-02-14T11:24:48.742Z,44.75
2019-02-14T11:25:48.690Z,43.79
2019-02-14T11:26:48.640Z,44.37
2019-02-14T11:27:48.591Z,44.37
2019-02-14T11:28:48.546Z,43.70
2019-02-14T11:29:48.496Z,44.37
2019-02-14T11:30:48.443Z,43.60
2019-02-14T11:31:48.400Z,44.27
2019-02-14T11:32:48.346Z,44.37
2019-02-14T11:33:48.311Z,44.56
2019-02-14T11:34:48.247Z,43.98
2019-02-14T11:35:48.201Z,44.27
2019-02-14T11:36:48.149Z,43.70
2019-02-14T11:37:48.101Z,43.79
2019-02-14T11:38:48.050Z,43.79
2019-02-14T11:39:48.003Z,43.60
2019-02-14T11:40:47.953Z,44.17
2019-02-14T11:41:47.905Z,44.17
2019-02-14T11:42:47.855Z,44.46
2019-02-14T11:43:47.806Z,43.79
2019-02-14T11:44:47.756Z,43.98
2019-02-14T11:45:47.708Z,44.17
2019-02-14T11:46:51.593Z,43.79
2019-02-14T11:47:47.610Z,44.37
2019-02-14T11:48:48.042Z,44.37
2019-02-14T11:49:47.512Z,44.17
2019-02-14T11:50:47.462Z,43.79
2019-02-14T11:51:47.413Z,44.46
2019-02-14T11:52:47.363Z,44.56
2019-02-14T11:53:47.315Z,44.65
2019-02-14T11:54:47.265Z,44.65
2019-02-14T11:55:47.216Z,44.75
2019-02-14T11:56:47.167Z,44.75
2019-02-14T11:57:47.117Z,44.87
2019-02-14T11:58:47.068Z,44.75
2019-02-14T11:59:47.021Z,44.46
2019-02-14T12:00:46.971Z,44.77
2019-02-14T12:01:54.995Z,44.65
2019-02-14T12:02:55.109Z,44.56
2019-02-14T12:03:46.823Z,44.56
2019-02-14T12:04:46.774Z,44.65
2019-02-14T12:05:46.726Z,44.56
2019-02-14T12:06:46.751Z,44.56
2019-02-14T12:07:46.632Z,44.46
2019-02-14T12:08:57.764Z,44.56
2019-02-14T12:09:46.529Z,44.46
2019-02-14T12:10:46.478Z,44.37
2019-02-14T12:11:46.431Z,44.27
2019-02-14T12:12:46.381Z,44.46
2019-02-14T12:13:46.373Z,44.46
2019-02-14T12:14:46.282Z,44.37
2019-02-14T12:15:46.233Z,44.46
2019-02-14T12:16:46.185Z,44.46
2019-02-14T12:17:46.136Z,44.37
2019-02-14T12:18:46.086Z,44.46
2019-02-14T12:19:46.037Z,44.37
2019-02-14T12:20:47.864Z,44.37
2019-02-14T12:21:45.988Z,44.27
2019-02-14T12:22:47.073Z,44.37
2019-02-14T12:23:45.854Z,44.46
2019-02-14T12:24:45.795Z,44.08
2019-02-14T12:25:45.742Z,44.08
2019-02-14T12:26:45.702Z,43.98
2019-02-14T12:27:45.645Z,44.08
2019-02-14T12:28:45.596Z,44.17
2019-02-14T12:29:45.548Z,44.17
2019-02-14T12:30:45.495Z,44.37
2019-02-14T12:31:45.450Z,44.08
2019-02-14T12:32:45.398Z,44.17
2019-02-14T12:33:45.349Z,44.08
2019-02-14T12:34:45.301Z,43.98
2019-02-14T12:35:45.249Z,44.17
2019-02-14T12:36:45.204Z,44.75
2019-02-14T12:37:45.152Z,43.88
2019-02-14T12:38:45.107Z,44.65
2019-02-14T12:39:45.108Z,43.88
2019-02-14T12:40:45.105Z,43.70
2019-02-14T12:41:45.105Z,43.60
2019-02-14T12:42:45.055Z,44.84
2019-02-14T12:43:44.856Z,44.37
2019-02-14T12:44:44.808Z,44.17
2019-02-14T12:45:44.758Z,44.08
2019-02-14T12:46:44.708Z,44.08
2019-02-14T12:47:44.660Z,44.08
2019-02-14T12:48:44.609Z,44.17
2019-02-14T12:49:44.567Z,44.08
2019-02-14T12:50:44.511Z,44.27
2019-02-14T12:51:44.461Z,44.17